createdAt,value
2023-05-09T00:00:13.693Z,0.00
2023-05-09T00:00:37.733Z,0.00
2023-05-09T00:01:06.512Z,0.20
2023-05-09T00:01:31.189Z,0.17
2023-05-09T00:01:53.852Z,0.10
2023-05-09T00:02:16.174Z,0.00
2023-05-09T00:02:39.343Z,1.60
2023-05-09T00:03:02.247Z,1.50
2023-05-09T00:03:24.492Z,0.80
2023-05-09T00:03:46.997Z,0.10
2023-05-09T00:04:08.683Z,0.20
2023-05-09T00:04:30.860Z,0.00
2023-05-09T00:04:53.101Z,0.03
2023-05-09T00:05:16.760Z,0.40
2023-05-09T00:05:39.305Z,1.30
2023-05-09T00:06:02.371Z,0.10
2023-05-09T00:06:25.860Z,0.08
2023-05-09T00:06:47.925Z,0.00
2023-05-09T00:07:10.572Z,0.00
2023-05-09T00:07:32.762Z,0.10
2023-05-09T00:07:54.837Z,0.10
2023-05-09T00:08:16.984Z,0.90
2023-05-09T00:08:39.197Z,0.10
2023-05-09T00:09:01.376Z,0.10
2023-05-09T00:09:23.468Z,0.10
2023-05-09T00:09:45.655Z,0.20
2023-05-09T00:10:07.915Z,0.00
2023-05-09T00:10:29.987Z,0.90
2023-05-09T00:10:52.204Z,4.00
2023-05-09T00:11:13.875Z,0.88
2023-05-09T00:11:35.979Z,0.10
2023-05-09T00:11:58.050Z,0.10
2023-05-09T00:12:20.131Z,0.40
2023-05-09T00:12:43.684Z,0.88
2023-05-09T00:13:06.076Z,0.00
2023-05-09T00:13:28.480Z,2.50
2023-05-09T00:13:50.699Z,2.20
2023-05-09T00:14:13.850Z,0.20
2023-05-09T00:14:36.053Z,0.10
2023-05-09T00:14:58.284Z,1.40
2023-05-09T00:15:20.440Z,2.05
2023-05-09T00:15:44.263Z,3.60
2023-05-09T00:16:06.386Z,1.05
2023-05-09T00:16:28.750Z,1.00
2023-05-09T00:16:51.096Z,0.23
2023-05-09T00:17:14.472Z,0.15
2023-05-09T00:17:38.513Z,0.30
2023-05-09T00:18:00.899Z,0.40
2023-05-09T00:18:23.075Z,0.10
2023-05-09T00:18:45.243Z,0.00
2023-05-09T00:19:07.512Z,0.00
2023-05-09T00:19:29.645Z,0.10
2023-05-09T00:19:52.968Z,0.10
2023-05-09T00:20:15.551Z,0.00
2023-05-09T00:20:37.658Z,0.10
2023-05-09T00:20:59.734Z,0.50
2023-05-09T00:21:21.835Z,0.60
2023-05-09T00:21:43.969Z,0.10
2023-05-09T00:22:06.272Z,0.20
2023-05-09T00:22:28.579Z,2.00
2023-05-09T00:22:51.102Z,0.80
2023-05-09T00:23:13.186Z,0.35
2023-05-09T00:23:35.497Z,0.25
2023-05-09T00:23:57.932Z,0.20
2023-05-09T00:24:19.988Z,0.32
2023-05-09T00:24:42.076Z,2.08
2023-05-09T00:25:04.307Z,0.05
2023-05-09T00:25:26.394Z,11.60
2023-05-09T00:25:48.120Z,0.00
2023-05-09T00:26:10.449Z,0.00
2023-05-09T00:26:32.501Z,0.30
2023-05-09T00:26:54.551Z,0.00
2023-05-09T00:27:17.010Z,0.40
2023-05-09T00:27:39.222Z,0.28
2023-05-09T00:28:01.342Z,0.20
2023-05-09T00:28:23.447Z,0.00
2023-05-09T00:28:45.534Z,0.00
2023-05-09T00:29:07.625Z,1.10
2023-05-09T00:29:29.720Z,6.40
2023-05-09T00:29:51.804Z,0.80
2023-05-09T00:30:14.220Z,0.00
2023-05-09T00:30:36.272Z,2.13
2023-05-09T00:30:58.175Z,2.80
2023-05-09T00:31:20.846Z,0.00
2023-05-09T00:31:42.970Z,0.00
2023-05-09T00:32:05.354Z,0.00
2023-05-09T00:32:29.068Z,0.20
2023-05-09T00:32:51.277Z,0.20
2023-05-09T00:33:13.082Z,0.00
2023-05-09T00:33:35.350Z,0.00
2023-05-09T00:33:57.411Z,0.00
2023-05-09T00:34:19.457Z,0.00
2023-05-09T00:34:48.879Z,0.00
2023-05-09T00:35:11.134Z,0.30
2023-05-09T00:35:33.365Z,1.65
2023-05-09T00:35:55.580Z,2.70
2023-05-09T00:36:17.712Z,0.00
2023-05-09T00:36:39.807Z,1.30
2023-05-09T00:37:01.933Z,6.50
2023-05-09T00:37:24.049Z,3.30
2023-05-09T00:37:46.103Z,1.15
2023-05-09T00:38:08.333Z,0.30
2023-05-09T00:38:30.390Z,0.00
2023-05-09T00:38:52.429Z,0.00
2023-05-09T00:39:14.529Z,0.00
2023-05-09T00:39:36.336Z,0.00
2023-05-09T00:39:58.467Z,0.10
2023-05-09T00:40:20.666Z,0.10
2023-05-09T00:40:42.815Z,0.10
2023-05-09T00:41:05.026Z,0.20
2023-05-09T00:41:27.116Z,0.00
2023-05-09T00:41:49.222Z,0.40
2023-05-09T00:42:11.030Z,1.02
2023-05-09T00:42:33.138Z,0.20
2023-05-09T00:42:58.213Z,0.50
2023-05-09T00:43:20.976Z,1.45
2023-05-09T00:43:43.069Z,3.08
2023-05-09T00:44:05.802Z,0.50
2023-05-09T00:44:27.913Z,0.00
2023-05-09T00:44:49.974Z,0.22
2023-05-09T00:45:12.423Z,0.30
2023-05-09T00:45:35.066Z,0.10
2023-05-09T00:45:57.248Z,0.65
2023-05-09T00:46:19.400Z,0.13
2023-05-09T00:46:41.523Z,0.10
2023-05-09T00:47:03.699Z,0.00
2023-05-09T00:47:27.253Z,0.20
2023-05-09T00:47:49.422Z,3.80
2023-05-09T00:48:11.652Z,1.60
2023-05-09T00:48:33.735Z,0.80
2023-05-09T00:48:56.442Z,0.00
2023-05-09T00:49:18.495Z,0.00
2023-05-09T00:49:40.580Z,0.00
2023-05-09T00:50:03.560Z,1.00
2023-05-09T00:50:25.720Z,2.80
2023-05-09T00:50:52.691Z,0.50
2023-05-09T00:51:14.947Z,0.10
2023-05-09T00:51:37.709Z,0.40
2023-05-09T00:52:00.997Z,0.00
2023-05-09T00:52:25.809Z,0.10
2023-05-09T00:52:47.912Z,0.40
2023-05-09T00:53:10.253Z,0.70
2023-05-09T00:53:32.365Z,0.10
2023-05-09T00:53:54.481Z,0.10
2023-05-09T00:54:16.770Z,20.90
2023-05-09T00:54:38.997Z,0.50
2023-05-09T00:55:01.313Z,0.40
2023-05-09T00:55:23.595Z,0.08
2023-05-09T00:55:45.718Z,0.10
2023-05-09T00:56:08.165Z,0.20
2023-05-09T00:56:30.218Z,0.30
2023-05-09T00:56:52.273Z,0.00
2023-05-09T00:57:14.618Z,0.00
2023-05-09T00:57:36.924Z,0.00
2023-05-09T00:57:58.983Z,0.20
2023-05-09T00:58:21.754Z,0.10
2023-05-09T00:58:43.736Z,0.10
2023-05-09T00:59:08.932Z,0.10
2023-05-09T00:59:30.788Z,0.20
2023-05-09T00:59:52.906Z,0.03
2023-05-09T01:00:15.482Z,0.00
2023-05-09T01:00:38.118Z,3.80
2023-05-09T01:01:02.156Z,4.40
2023-05-09T01:01:24.435Z,0.70
2023-05-09T01:01:46.653Z,0.57
2023-05-09T01:02:08.815Z,4.03
2023-05-09T01:02:31.595Z,0.10
2023-05-09T01:02:55.079Z,0.20
2023-05-09T01:03:17.581Z,0.08
2023-05-09T01:03:41.429Z,16.80
2023-05-09T01:04:03.793Z,1.20
2023-05-09T01:04:25.873Z,1.70
2023-05-09T01:04:48.312Z,1.27
2023-05-09T01:05:10.691Z,0.90
2023-05-09T01:05:40.928Z,1.90
2023-05-09T01:06:07.521Z,0.05
2023-05-09T01:06:37.972Z,0.90
2023-05-09T01:07:12.114Z,0.10
2023-05-09T01:07:44.802Z,0.30
2023-05-09T01:08:06.835Z,0.65
2023-05-09T01:08:38.470Z,0.00
2023-05-09T01:09:04.899Z,3.20
2023-05-09T01:09:44.220Z,0.17
2023-05-09T01:10:15.898Z,0.20
2023-05-09T01:10:46.980Z,0.68
2023-05-09T01:11:21.156Z,2.10
2023-05-09T01:11:48.633Z,0.10
2023-05-09T01:12:14.721Z,0.50
2023-05-09T01:13:00.158Z,0.10
2023-05-09T01:13:32.744Z,0.90
2023-05-09T01:13:54.783Z,0.00
2023-05-09T01:14:25.968Z,0.10
2023-05-09T01:14:51.617Z,1.70
2023-05-09T01:15:25.141Z,2.08
2023-05-09T01:16:09.067Z,0.80
2023-05-09T01:16:42.709Z,1.00
2023-05-09T01:17:14.133Z,0.30
2023-05-09T01:17:39.960Z,0.80
2023-05-09T01:18:07.304Z,0.08
2023-05-09T01:18:47.552Z,0.00
2023-05-09T01:19:28.786Z,0.00
2023-05-09T01:20:00.198Z,0.10
2023-05-09T01:20:22.545Z,0.30
2023-05-09T01:20:48.159Z,0.00
2023-05-09T01:21:14.795Z,0.50
2023-05-09T01:21:43.141Z,0.90
2023-05-09T01:22:08.715Z,0.10
2023-05-09T01:22:34.888Z,0.10
2023-05-09T01:23:06.149Z,0.90
2023-05-09T01:23:41.366Z,0.20
2023-05-09T01:24:19.987Z,0.35
2023-05-09T01:24:42.038Z,0.77
2023-05-09T01:25:05.160Z,0.13
2023-05-09T01:25:53.216Z,0.40
2023-05-09T01:26:18.357Z,0.10
2023-05-09T01:26:58.842Z,0.10
2023-05-09T01:27:33.222Z,0.10
2023-05-09T01:27:58.119Z,3.70
2023-05-09T01:28:33.921Z,0.70
2023-05-09T01:29:14.347Z,0.00
2023-05-09T01:29:36.546Z,1.30
2023-05-09T01:29:59.063Z,0.10
2023-05-09T01:30:21.122Z,0.10
2023-05-09T01:30:46.256Z,0.10
2023-05-09T01:31:08.997Z,0.10
2023-05-09T01:31:31.725Z,0.10
2023-05-09T01:31:54.216Z,0.00
2023-05-09T01:32:21.770Z,0.10
2023-05-09T01:32:44.877Z,2.33
2023-05-09T01:33:08.269Z,2.80
2023-05-09T01:33:32.851Z,0.40
2023-05-09T01:33:55.680Z,0.00
2023-05-09T01:34:18.253Z,6.60
2023-05-09T01:34:41.338Z,6.60
2023-05-09T01:35:05.034Z,0.03
2023-05-09T01:35:27.246Z,1.10
2023-05-09T01:35:54.686Z,0.80
2023-05-09T01:36:18.156Z,0.00
2023-05-09T01:36:42.393Z,0.10
2023-05-09T01:37:05.753Z,0.00
2023-05-09T01:37:30.641Z,0.00
2023-05-09T01:37:54.329Z,0.20
2023-05-09T01:38:19.177Z,0.20
2023-05-09T01:38:43.083Z,0.10
2023-05-09T01:39:06.635Z,0.05
2023-05-09T01:39:29.676Z,0.80
2023-05-09T01:39:53.903Z,0.70
2023-05-09T01:40:17.708Z,0.25
2023-05-09T01:40:41.125Z,0.50
2023-05-09T01:41:05.356Z,0.10
2023-05-09T01:41:29.583Z,1.10
2023-05-09T01:41:54.370Z,0.32
2023-05-09T01:42:17.326Z,0.60
2023-05-09T01:42:44.209Z,0.00
2023-05-09T01:43:07.533Z,0.10
2023-05-09T01:43:30.906Z,0.40
2023-05-09T01:43:54.549Z,0.10
2023-05-09T01:44:17.088Z,0.40
2023-05-09T01:44:40.484Z,0.15
2023-05-09T01:45:03.084Z,0.50
2023-05-09T01:45:25.651Z,0.10
2023-05-09T01:45:49.118Z,0.00
2023-05-09T01:46:12.178Z,1.60
2023-05-09T01:46:35.340Z,0.10
2023-05-09T01:46:58.281Z,0.00
2023-05-09T01:47:20.664Z,0.13
2023-05-09T01:47:43.439Z,0.65
2023-05-09T01:48:06.314Z,0.50
2023-05-09T01:48:30.093Z,0.95
2023-05-09T01:48:53.085Z,1.60
2023-05-09T01:49:15.524Z,0.10
2023-05-09T01:49:39.576Z,0.20
2023-05-09T01:50:02.500Z,0.90
2023-05-09T01:50:25.258Z,0.10
2023-05-09T01:50:48.224Z,0.70
2023-05-09T01:51:11.147Z,0.28
2023-05-09T01:51:37.392Z,0.40
2023-05-09T01:52:00.638Z,0.75
2023-05-09T01:52:23.241Z,0.40
2023-05-09T01:52:47.992Z,0.00
2023-05-09T01:53:11.223Z,0.00
2023-05-09T01:53:33.425Z,0.00
2023-05-09T01:53:57.324Z,0.10
2023-05-09T01:54:19.612Z,1.80
2023-05-09T01:54:42.311Z,0.10
2023-05-09T01:55:06.114Z,0.00
2023-05-09T01:55:29.225Z,1.10
2023-05-09T01:55:52.546Z,4.30
2023-05-09T01:56:15.700Z,3.97
2023-05-09T01:56:38.624Z,0.15
2023-05-09T01:57:02.178Z,4.70
2023-05-09T01:57:24.870Z,3.72
2023-05-09T01:57:47.207Z,0.00
2023-05-09T01:58:10.594Z,0.00
2023-05-09T01:58:34.255Z,1.00
2023-05-09T01:58:57.038Z,0.50
2023-05-09T01:59:19.974Z,0.00
2023-05-09T01:59:43.479Z,0.10
2023-05-09T02:00:07.886Z,0.20
2023-05-09T02:00:30.043Z,0.40
2023-05-09T02:00:52.710Z,2.33
2023-05-09T02:01:15.461Z,2.30
2023-05-09T02:01:37.872Z,6.20
2023-05-09T02:02:00.778Z,4.68
2023-05-09T02:02:22.982Z,0.05
2023-05-09T02:02:45.888Z,0.00
2023-05-09T02:03:08.195Z,0.10
2023-05-09T02:03:30.666Z,7.10
2023-05-09T02:03:53.177Z,7.40
2023-05-09T02:04:16.550Z,1.45
2023-05-09T02:04:39.523Z,0.38
2023-05-09T02:05:02.544Z,0.20
2023-05-09T02:05:26.981Z,0.70
2023-05-09T02:05:49.527Z,4.90
2023-05-09T02:06:11.846Z,0.40
2023-05-09T02:06:34.756Z,0.00
2023-05-09T02:06:57.789Z,0.80
2023-05-09T02:07:20.341Z,0.50
2023-05-09T02:07:42.910Z,0.40
2023-05-09T02:08:05.156Z,0.17
2023-05-09T02:08:27.645Z,0.30
2023-05-09T02:08:50.375Z,0.40
2023-05-09T02:09:13.115Z,0.52
2023-05-09T02:09:35.828Z,0.20
2023-05-09T02:09:59.113Z,0.00
2023-05-09T02:10:21.313Z,0.10
2023-05-09T02:10:43.519Z,0.20
2023-05-09T02:11:05.629Z,0.35
2023-05-09T02:11:27.918Z,0.30
2023-05-09T02:11:50.027Z,0.30
2023-05-09T02:12:11.733Z,0.50
2023-05-09T02:12:34.050Z,0.30
2023-05-09T02:12:57.141Z,0.05
2023-05-09T02:13:19.390Z,0.15
2023-05-09T02:13:41.329Z,0.00
2023-05-09T02:14:03.722Z,0.30
2023-05-09T02:14:26.226Z,0.00
2023-05-09T02:14:48.329Z,0.00
2023-05-09T02:15:10.682Z,0.00
2023-05-09T02:15:32.963Z,5.60
2023-05-09T02:15:55.569Z,1.40
2023-05-09T02:16:21.238Z,0.10
2023-05-09T02:16:43.607Z,0.08
2023-05-09T02:17:06.940Z,0.17
2023-05-09T02:17:30.829Z,1.10
2023-05-09T02:17:53.090Z,0.10
2023-05-09T02:18:16.772Z,0.10
2023-05-09T02:18:38.922Z,0.17
2023-05-09T02:19:00.755Z,0.40
2023-05-09T02:19:22.909Z,0.20
2023-05-09T02:19:45.292Z,0.50
2023-05-09T02:20:09.781Z,0.10
2023-05-09T02:20:33.349Z,0.10
2023-05-09T02:20:55.472Z,0.00
2023-05-09T02:21:17.849Z,0.00
2023-05-09T02:21:40.031Z,0.20
2023-05-09T02:22:02.724Z,0.00
2023-05-09T02:22:24.992Z,0.00
2023-05-09T02:22:47.488Z,0.00
2023-05-09T02:23:09.574Z,0.00
2023-05-09T02:23:32.000Z,0.70
2023-05-09T02:23:54.236Z,0.10
2023-05-09T02:24:16.303Z,0.00
2023-05-09T02:24:38.602Z,3.50
2023-05-09T02:25:00.748Z,1.92
2023-05-09T02:25:23.228Z,1.40
2023-05-09T02:25:45.918Z,0.22
2023-05-09T02:26:08.043Z,1.00
2023-05-09T02:26:30.401Z,0.20
2023-05-09T02:26:52.550Z,0.00
2023-05-09T02:27:15.558Z,0.00
2023-05-09T02:27:38.820Z,0.00
2023-05-09T02:28:01.396Z,0.00
2023-05-09T02:28:24.025Z,0.00
2023-05-09T02:28:46.694Z,0.00
2023-05-09T02:29:09.295Z,0.00
2023-05-09T02:29:43.574Z,0.00
2023-05-09T02:30:07.424Z,0.05
2023-05-09T02:30:32.031Z,0.60
2023-05-09T02:30:55.682Z,0.00
2023-05-09T02:31:19.685Z,0.10
2023-05-09T02:31:42.528Z,0.00
2023-05-09T02:32:05.177Z,0.00
2023-05-09T02:32:29.549Z,0.10
2023-05-09T02:32:56.934Z,0.10
2023-05-09T02:33:19.133Z,0.30
2023-05-09T02:33:42.859Z,0.15
2023-05-09T02:34:06.050Z,0.30
2023-05-09T02:34:28.322Z,0.30
2023-05-09T02:34:52.146Z,0.10
2023-05-09T02:35:16.442Z,0.10
2023-05-09T02:35:42.021Z,0.10
2023-05-09T02:36:04.829Z,0.00
2023-05-09T02:36:27.814Z,0.00
2023-05-09T02:36:50.331Z,1.10
2023-05-09T02:37:16.026Z,0.00
2023-05-09T02:37:38.506Z,0.10
2023-05-09T02:38:00.941Z,0.10
2023-05-09T02:38:23.145Z,0.00
2023-05-09T02:38:45.979Z,0.00
2023-05-09T02:39:08.163Z,0.00
2023-05-09T02:39:30.394Z,0.05
2023-05-09T02:39:52.556Z,0.05
2023-05-09T02:40:14.753Z,0.10
2023-05-09T02:40:36.915Z,0.10
2023-05-09T02:40:59.038Z,0.10
2023-05-09T02:41:21.752Z,0.08
2023-05-09T02:41:49.376Z,0.40
2023-05-09T02:42:13.598Z,5.00
2023-05-09T02:42:35.924Z,0.00
2023-05-09T02:42:58.112Z,0.00
2023-05-09T02:43:20.229Z,0.10
2023-05-09T02:43:42.414Z,0.00
2023-05-09T02:44:05.153Z,0.05
2023-05-09T02:44:27.490Z,0.00
2023-05-09T02:44:49.589Z,0.00
2023-05-09T02:45:11.957Z,0.00
2023-05-09T02:45:34.173Z,0.00
2023-05-09T02:45:56.265Z,0.00
2023-05-09T02:46:18.479Z,0.05
2023-05-09T02:46:40.636Z,0.00
2023-05-09T02:47:03.257Z,0.10
2023-05-09T02:47:26.172Z,0.00
2023-05-09T02:47:48.389Z,0.00
2023-05-09T02:48:10.546Z,0.20
2023-05-09T02:48:32.705Z,0.00
2023-05-09T02:48:54.825Z,0.20
2023-05-09T02:49:30.986Z,2.17
2023-05-09T02:49:53.958Z,0.17
2023-05-09T02:50:16.108Z,0.20
2023-05-09T02:50:39.475Z,0.50
2023-05-09T02:51:01.668Z,0.00
2023-05-09T02:51:23.827Z,0.20
2023-05-09T02:51:45.905Z,0.30
2023-05-09T02:52:08.121Z,1.00
2023-05-09T02:52:30.242Z,2.10
2023-05-09T02:52:52.381Z,0.50
2023-05-09T02:53:14.463Z,0.00
2023-05-09T02:53:36.139Z,0.40
2023-05-09T02:53:58.186Z,0.30
2023-05-09T02:54:20.470Z,0.90
2023-05-09T02:54:42.578Z,1.13
2023-05-09T02:55:05.082Z,2.60
2023-05-09T02:55:27.171Z,2.15
2023-05-09T02:55:49.273Z,0.30
2023-05-09T02:56:11.417Z,0.00
2023-05-09T02:56:33.517Z,0.00
2023-05-09T02:56:55.648Z,0.03
2023-05-09T02:57:17.716Z,0.13
2023-05-09T02:57:39.863Z,0.30
2023-05-09T02:58:09.687Z,2.10
2023-05-09T02:58:35.547Z,0.30
2023-05-09T02:58:57.615Z,0.10
2023-05-09T02:59:20.357Z,0.50
2023-05-09T02:59:42.460Z,0.40
2023-05-09T03:00:09.409Z,0.05
2023-05-09T03:00:31.837Z,0.00
2023-05-09T03:00:54.004Z,0.30
2023-05-09T03:01:16.159Z,5.20
2023-05-09T03:01:38.444Z,5.03
2023-05-09T03:02:00.600Z,0.22
2023-05-09T03:02:23.811Z,0.40
2023-05-09T03:02:47.100Z,0.10
2023-05-09T03:03:09.430Z,8.70
2023-05-09T03:03:34.002Z,0.00
2023-05-09T03:03:56.345Z,0.00
2023-05-09T03:04:19.726Z,0.00
2023-05-09T03:04:42.192Z,0.00
2023-05-09T03:05:04.415Z,0.10
2023-05-09T03:05:26.541Z,0.30
2023-05-09T03:05:48.583Z,0.60
2023-05-09T03:06:10.721Z,0.10
2023-05-09T03:06:33.106Z,0.60
2023-05-09T03:06:55.237Z,0.00
2023-05-09T03:07:17.367Z,0.05
2023-05-09T03:07:39.461Z,0.10
2023-05-09T03:08:01.707Z,0.20
2023-05-09T03:08:23.864Z,1.00
2023-05-09T03:08:45.936Z,1.00
2023-05-09T03:09:08.216Z,0.03
2023-05-09T03:09:30.299Z,2.60
2023-05-09T03:09:51.967Z,0.30
2023-05-09T03:10:14.105Z,0.40
2023-05-09T03:10:36.189Z,0.00
2023-05-09T03:10:58.296Z,1.30
2023-05-09T03:11:20.356Z,0.00
2023-05-09T03:11:42.403Z,0.00
2023-05-09T03:12:04.601Z,0.10
2023-05-09T03:12:26.698Z,0.10
2023-05-09T03:12:48.804Z,1.20
2023-05-09T03:13:11.010Z,1.30
2023-05-09T03:13:33.117Z,0.10
2023-05-09T03:13:55.283Z,3.70
2023-05-09T03:14:17.407Z,3.70
2023-05-09T03:14:39.508Z,0.10
2023-05-09T03:15:01.640Z,0.40
2023-05-09T03:15:24.121Z,0.17
2023-05-09T03:15:46.580Z,0.00
2023-05-09T03:16:08.748Z,0.80
2023-05-09T03:16:31.057Z,0.00
2023-05-09T03:16:52.930Z,0.10
2023-05-09T03:17:17.393Z,0.10
2023-05-09T03:17:39.537Z,0.30
2023-05-09T03:18:01.689Z,0.10
2023-05-09T03:18:23.810Z,5.10
2023-05-09T03:18:45.890Z,0.40
2023-05-09T03:19:08.493Z,0.10
2023-05-09T03:19:30.572Z,0.20
2023-05-09T03:19:52.621Z,0.10
2023-05-09T03:20:14.937Z,0.10
2023-05-09T03:20:37.063Z,0.10
2023-05-09T03:20:59.240Z,0.00
2023-05-09T03:21:21.400Z,0.90
2023-05-09T03:21:43.475Z,0.90
2023-05-09T03:22:05.534Z,0.00
2023-05-09T03:22:29.777Z,0.10
2023-05-09T03:22:51.885Z,0.00
2023-05-09T03:23:13.987Z,0.00
2023-05-09T03:23:35.748Z,0.00
2023-05-09T03:23:57.814Z,0.00
2023-05-09T03:24:19.879Z,0.00
2023-05-09T03:24:41.965Z,0.00
2023-05-09T03:25:04.111Z,0.00
2023-05-09T03:25:26.366Z,0.20
2023-05-09T03:25:48.549Z,0.20
2023-05-09T03:26:10.723Z,0.00
2023-05-09T03:26:32.901Z,0.00
2023-05-09T03:26:55.202Z,0.00
2023-05-09T03:27:17.283Z,0.40
2023-05-09T03:27:39.387Z,0.50
2023-05-09T03:28:01.545Z,0.03
2023-05-09T03:28:23.665Z,0.10
2023-05-09T03:28:46.981Z,0.10
2023-05-09T03:29:09.074Z,0.10
2023-05-09T03:29:31.192Z,0.10
2023-05-09T03:29:53.263Z,0.08
2023-05-09T03:30:15.756Z,0.00
2023-05-09T03:30:37.813Z,0.00
2023-05-09T03:31:00.256Z,2.70
2023-05-09T03:31:22.417Z,0.00
2023-05-09T03:31:44.629Z,0.10
2023-05-09T03:32:06.836Z,0.05
2023-05-09T03:32:29.070Z,0.00
2023-05-09T03:32:51.201Z,0.50
2023-05-09T03:33:13.316Z,0.00
2023-05-09T03:33:35.427Z,0.00
2023-05-09T03:33:57.504Z,0.32
2023-05-09T03:34:19.957Z,0.40
2023-05-09T03:34:41.625Z,0.00
2023-05-09T03:35:03.859Z,0.00
2023-05-09T03:35:26.154Z,0.05
2023-05-09T03:35:48.248Z,0.10
2023-05-09T03:36:10.422Z,0.00
2023-05-09T03:36:33.048Z,0.00
2023-05-09T03:36:55.427Z,0.10
2023-05-09T03:37:17.584Z,0.10
2023-05-09T03:37:39.828Z,0.00
2023-05-09T03:38:01.925Z,0.60
2023-05-09T03:38:24.399Z,0.00
2023-05-09T03:38:46.490Z,0.00
2023-05-09T03:39:08.968Z,0.68
2023-05-09T03:39:30.679Z,0.80
2023-05-09T03:39:52.774Z,0.17
2023-05-09T03:40:14.921Z,0.20
2023-05-09T03:40:37.000Z,0.40
2023-05-09T03:40:58.830Z,0.60
2023-05-09T03:41:21.063Z,0.10
2023-05-09T03:42:01.938Z,0.10
2023-05-09T03:42:24.025Z,0.15
2023-05-09T03:42:46.094Z,0.10
2023-05-09T03:43:08.234Z,0.00
2023-05-09T03:43:30.436Z,0.08
2023-05-09T03:43:52.593Z,3.80
2023-05-09T03:44:14.678Z,1.95
2023-05-09T03:44:36.740Z,0.95
2023-05-09T03:44:59.218Z,2.30
2023-05-09T03:45:21.394Z,3.20
2023-05-09T03:45:43.825Z,2.30
2023-05-09T03:46:06.148Z,2.20
2023-05-09T03:46:27.867Z,2.15
2023-05-09T03:46:50.284Z,1.60
2023-05-09T03:47:12.569Z,0.82
2023-05-09T03:47:34.252Z,0.45
2023-05-09T03:47:56.422Z,0.40
2023-05-09T03:48:18.558Z,4.40
2023-05-09T03:48:40.652Z,1.45
2023-05-09T03:49:04.270Z,1.63
2023-05-09T03:49:26.344Z,0.32
2023-05-09T03:49:48.429Z,0.38
2023-05-09T03:50:10.932Z,0.20
2023-05-09T03:50:33.039Z,1.77
2023-05-09T03:50:55.267Z,0.85
2023-05-09T03:51:26.574Z,4.40
2023-05-09T03:51:48.657Z,0.80
2023-05-09T03:52:10.844Z,0.35
2023-05-09T03:52:32.913Z,1.10
2023-05-09T03:52:55.810Z,3.65
2023-05-09T03:53:17.890Z,7.32
2023-05-09T03:53:39.982Z,1.10
2023-05-09T03:54:01.674Z,0.88
2023-05-09T03:54:23.793Z,1.45
2023-05-09T03:54:48.674Z,3.58
2023-05-09T03:55:10.889Z,3.15
2023-05-09T03:55:32.972Z,1.35
2023-05-09T03:55:55.108Z,3.60
2023-05-09T03:56:17.252Z,2.10
2023-05-09T03:56:39.293Z,1.35
2023-05-09T03:57:01.013Z,1.67
2023-05-09T03:57:23.107Z,2.30
2023-05-09T03:57:45.234Z,3.63
2023-05-09T03:58:07.506Z,1.40
2023-05-09T03:58:29.617Z,1.80
2023-05-09T03:58:51.710Z,0.95
2023-05-09T03:59:13.847Z,2.40
2023-05-09T03:59:35.960Z,2.60
2023-05-09T03:59:58.027Z,1.38
2023-05-09T04:00:20.469Z,3.80
2023-05-09T04:00:42.653Z,4.45
2023-05-09T04:01:04.865Z,3.80
2023-05-09T04:01:26.712Z,4.32
2023-05-09T04:01:48.472Z,2.53
2023-05-09T04:02:11.121Z,0.65
2023-05-09T04:02:36.161Z,0.70
2023-05-09T04:02:58.500Z,0.73
2023-05-09T04:03:20.949Z,0.90
2023-05-09T04:03:43.246Z,1.70
2023-05-09T04:04:05.588Z,0.90
2023-05-09T04:04:27.825Z,0.40
2023-05-09T04:04:49.983Z,1.98
2023-05-09T04:05:13.914Z,0.10
2023-05-09T04:05:36.219Z,0.30
2023-05-09T04:05:58.009Z,0.00
2023-05-09T04:06:20.219Z,0.40
2023-05-09T04:06:42.383Z,0.43
2023-05-09T04:07:04.464Z,0.22
2023-05-09T04:07:28.334Z,0.93
2023-05-09T04:07:50.493Z,2.00
2023-05-09T04:08:12.725Z,2.00
2023-05-09T04:08:34.996Z,7.35
2023-05-09T04:08:57.142Z,1.80
2023-05-09T04:09:19.433Z,0.10
2023-05-09T04:09:42.731Z,1.80
2023-05-09T04:10:04.930Z,1.70
2023-05-09T04:10:27.101Z,0.52
2023-05-09T04:10:50.238Z,1.63
2023-05-09T04:11:12.326Z,5.50
2023-05-09T04:11:35.890Z,3.00
2023-05-09T04:11:57.986Z,0.20
2023-05-09T04:12:20.052Z,0.10
2023-05-09T04:12:43.327Z,3.40
2023-05-09T04:13:05.526Z,1.50
2023-05-09T04:13:29.829Z,1.52
2023-05-09T04:13:51.657Z,2.75
2023-05-09T04:14:16.378Z,2.35
2023-05-09T04:14:41.758Z,2.10
2023-05-09T04:15:03.947Z,6.40
2023-05-09T04:15:26.277Z,3.55
2023-05-09T04:15:48.381Z,0.05
2023-05-09T04:16:10.551Z,3.10
2023-05-09T04:16:32.668Z,10.43
2023-05-09T04:16:54.809Z,1.67
2023-05-09T04:17:16.935Z,0.75
2023-05-09T04:17:39.085Z,1.85
2023-05-09T04:18:01.267Z,1.55
2023-05-09T04:18:23.457Z,4.20
2023-05-09T04:18:45.580Z,2.00
2023-05-09T04:19:07.762Z,6.82
2023-05-09T04:19:29.895Z,0.15
2023-05-09T04:19:52.056Z,0.10
2023-05-09T04:20:13.774Z,0.90
2023-05-09T04:20:35.980Z,2.00
2023-05-09T04:20:58.044Z,4.00
2023-05-09T04:21:20.196Z,0.73
2023-05-09T04:21:41.876Z,0.40
2023-05-09T04:22:03.641Z,0.90
2023-05-09T04:22:25.711Z,2.70
2023-05-09T04:22:47.861Z,1.15
2023-05-09T04:23:10.052Z,0.40
2023-05-09T04:23:32.144Z,0.40
2023-05-09T04:23:54.201Z,0.38
2023-05-09T04:24:15.970Z,1.20
2023-05-09T04:24:38.033Z,1.50
2023-05-09T04:25:00.208Z,2.08
2023-05-09T04:25:22.402Z,2.33
2023-05-09T04:25:44.098Z,2.53
2023-05-09T04:26:06.328Z,6.88
2023-05-09T04:26:28.660Z,2.00
2023-05-09T04:26:51.026Z,1.60
2023-05-09T04:27:13.136Z,0.50
2023-05-09T04:27:35.251Z,1.52
2023-05-09T04:27:57.723Z,12.25
2023-05-09T04:28:19.783Z,3.30
2023-05-09T04:28:41.536Z,0.10
2023-05-09T04:29:03.979Z,1.00
2023-05-09T04:29:26.259Z,0.80
2023-05-09T04:29:49.285Z,3.25
2023-05-09T04:30:11.896Z,0.70
2023-05-09T04:30:33.689Z,3.80
2023-05-09T04:30:56.145Z,7.27
2023-05-09T04:31:19.275Z,4.55
2023-05-09T04:31:41.525Z,0.30
2023-05-09T04:32:04.924Z,2.72
2023-05-09T04:32:27.019Z,9.68
2023-05-09T04:32:49.054Z,1.85
2023-05-09T04:33:11.183Z,2.17
2023-05-09T04:33:33.102Z,5.55
2023-05-09T04:33:55.532Z,8.32
2023-05-09T04:34:17.638Z,5.78
2023-05-09T04:34:39.741Z,13.27
2023-05-09T04:35:01.633Z,10.52
2023-05-09T04:35:23.505Z,3.15
2023-05-09T04:35:46.045Z,3.70
2023-05-09T04:36:08.278Z,8.70
2023-05-09T04:36:31.817Z,7.63
2023-05-09T04:36:54.069Z,11.20
2023-05-09T04:37:16.226Z,4.68
2023-05-09T04:37:38.465Z,0.57
2023-05-09T04:38:00.642Z,1.13
2023-05-09T04:38:22.725Z,11.43
2023-05-09T04:38:44.943Z,11.98
2023-05-09T04:39:07.709Z,6.45
2023-05-09T04:39:30.452Z,2.35
2023-05-09T04:39:52.508Z,2.00
2023-05-09T04:40:15.542Z,5.60
2023-05-09T04:40:37.670Z,4.95
2023-05-09T04:40:59.765Z,6.07
2023-05-09T04:41:21.454Z,19.73
2023-05-09T04:41:44.551Z,17.38
2023-05-09T04:42:06.687Z,3.53
2023-05-09T04:42:28.336Z,8.32
2023-05-09T04:42:50.096Z,13.00
2023-05-09T04:43:11.789Z,13.40
2023-05-09T04:43:33.983Z,12.23
2023-05-09T04:43:56.294Z,4.35
2023-05-09T04:44:18.529Z,7.38
2023-05-09T04:44:40.618Z,14.00
2023-05-09T04:45:03.044Z,14.13
2023-05-09T04:45:25.292Z,7.78
2023-05-09T04:45:47.825Z,13.38
2023-05-09T04:46:09.981Z,19.48
2023-05-09T04:46:32.153Z,20.17
2023-05-09T04:46:55.136Z,13.75
2023-05-09T04:47:17.260Z,17.05
2023-05-09T04:47:39.409Z,6.45
2023-05-09T04:48:01.515Z,4.72
2023-05-09T04:48:23.606Z,1.38
2023-05-09T04:48:45.728Z,9.05
2023-05-09T04:49:07.839Z,14.85
2023-05-09T04:49:30.044Z,18.58
2023-05-09T04:49:52.204Z,8.80
2023-05-09T04:50:14.336Z,1.77
2023-05-09T04:50:36.633Z,4.20
2023-05-09T04:50:58.366Z,9.10
2023-05-09T04:51:20.414Z,7.30
2023-05-09T04:51:42.522Z,4.10
2023-05-09T04:52:04.676Z,9.93
2023-05-09T04:52:26.741Z,18.00
2023-05-09T04:52:48.894Z,6.00
2023-05-09T04:53:11.029Z,1.13
2023-05-09T04:53:34.240Z,8.43
2023-05-09T04:53:56.424Z,10.10
2023-05-09T04:54:18.488Z,11.40
2023-05-09T04:54:41.020Z,15.45
2023-05-09T04:55:03.488Z,4.95
2023-05-09T04:55:28.531Z,5.30
2023-05-09T04:55:51.945Z,12.63
2023-05-09T04:56:16.177Z,16.65
2023-05-09T04:56:38.246Z,6.15
2023-05-09T04:57:13.638Z,5.07
2023-05-09T04:57:39.436Z,2.20
2023-05-09T04:58:01.504Z,0.77
2023-05-09T04:58:25.377Z,4.07
2023-05-09T04:58:47.460Z,1.95
2023-05-09T04:59:09.827Z,4.50
2023-05-09T04:59:31.507Z,4.63
2023-05-09T04:59:53.615Z,10.68
2023-05-09T05:00:16.765Z,8.40
2023-05-09T05:00:38.877Z,3.05
2023-05-09T05:01:00.551Z,3.45
2023-05-09T05:01:22.787Z,7.47
2023-05-09T05:01:45.026Z,7.88
2023-05-09T05:02:07.158Z,3.65
2023-05-09T05:02:29.387Z,11.80
2023-05-09T05:02:51.506Z,9.73
2023-05-09T05:03:13.694Z,5.68
2023-05-09T05:03:35.762Z,7.95
2023-05-09T05:03:57.859Z,4.75
2023-05-09T05:04:19.955Z,6.80
2023-05-09T05:04:42.128Z,18.55
2023-05-09T05:05:11.657Z,13.02
2023-05-09T05:05:37.129Z,4.35
2023-05-09T05:06:00.070Z,2.22
2023-05-09T05:06:22.182Z,10.82
2023-05-09T05:06:44.267Z,11.95
2023-05-09T05:07:06.337Z,15.88
2023-05-09T05:07:28.474Z,11.07
2023-05-09T05:07:50.538Z,11.10
2023-05-09T05:08:12.616Z,6.15